Time;durP1;ratioP1;P1;durP2;ratioP2;P2;SDS_P1;SDS_P2;PMS_P1;PMS_P2;Temp;Humidity;BMP_temperature;BMP_pressure;BME280_temperature;BME280_humidity;BME280_pressure;Samples;Min_cycle;Max_cycle;Signal;HPM_P1;HPM_P2
2022/05/19 00:01:14;;;;;;;11.30;10.30;;;;;;;16.61;64.42;101398.63;4986092;28;20034;-18
2022/05/19 00:03:39;;;;;;;11.50;10.38;;;;;;;16.58;64.45;101411.16;4984964;28;20045;-17
2022/05/19 00:06:07;;;;;;;11.85;10.68;;;;;;;16.53;65.09;101406.81;4982870;28;20026;-18
2022/05/19 00:08:32;;;;;;;11.68;10.57;;;;;;;16.48;64.57;101398.06;4982601;28;20400;-18
2022/05/19 00:11:00;;;;;;;11.35;10.27;;;;;;;16.47;64.69;101401.59;4984995;28;20033;-18
2022/05/19 00:13:27;;;;;;;14.15;10.77;;;;;;;16.42;64.83;101398.19;4984622;28;20436;-17
2022/05/19 00:15:53;;;;;;;11.52;10.43;;;;;;;16.41;64.63;101396.44;4988743;28;20066;-18
2022/05/19 00:18:19;;;;;;;12.32;11.05;;;;;;;16.35;64.73;101396.56;4985173;28;20104;-18
2022/05/19 00:20:44;;;;;;;12.32;11.23;;;;;;;16.33;65.02;101401.91;4985588;28;20089;-17
2022/05/19 00:23:10;;;;;;;11.85;10.75;;;;;;;16.26;64.83;101402.97;4987989;28;20526;-18
2022/05/19 00:25:35;;;;;;;11.35;10.30;;;;;;;16.26;64.75;101393.19;4983772;28;20027;-18
2022/05/19 00:28:00;;;;;;;11.70;10.75;;;;;;;16.23;64.97;101398.56;4982467;28;20088;-18
2022/05/19 00:30:26;;;;;;;12.23;10.98;;;;;;;16.19;64.90;101399.56;4986015;28;20029;-18
2022/05/19 00:32:51;;;;;;;11.48;10.57;;;;;;;16.18;64.79;101397.81;4985013;28;20038;-18
2022/05/19 00:35:17;;;;;;;11.55;10.45;;;;;;;16.11;65.02;101393.53;4982355;28;20389;-17
2022/05/19 00:37:42;;;;;;;11.40;10.32;;;;;;;16.10;65.29;101394.41;4984353;28;20380;-18
2022/05/19 00:40:09;;;;;;;10.88;9.88;;;;;;;16.04;65.33;101398.06;4984304;28;20034;-18
2022/05/19 00:42:43;;;;;;;10.98;9.98;;;;;;;16.05;65.23;101388.31;4984840;28;20034;-18
2022/05/19 00:45:13;;;;;;;10.73;9.80;;;;;;;16.01;65.40;101392.84;4982817;28;20492;-18
2022/05/19 00:48:00;;;;;;;11.20;10.20;;;;;;;15.98;65.33;101390.25;4985546;28;20026;-18
2022/05/19 00:50:29;;;;;;;11.45;10.45;;;;;;;15.95;65.42;101399.16;4985937;28;20023;-18
2022/05/19 00:53:00;;;;;;;11.20;10.20;;;;;;;15.91;65.38;101389.47;4988682;28;20465;-18
2022/05/19 00:55:29;;;;;;;12.07;10.90;;;;;;;15.89;65.30;101389.50;4988637;28;20022;-18
2022/05/19 00:58:00;;;;;;;10.95;10.00;;;;;;;15.82;65.02;101382.53;4988053;28;20040;-17
2022/05/19 01:00:26;;;;;;;10.70;9.80;;;;;;;15.82;64.83;101386.97;4987382;28;20030;-17
2022/05/19 01:02:54;;;;;;;11.07;10.13;;;;;;;15.72;65.09;101381.84;4987239;28;20037;-18
2022/05/19 01:05:32;;;;;;;11.27;10.18;;;;;;;15.73;65.67;101394.22;4992734;28;20026;-18
2022/05/19 01:08:01;;;;;;;13.23;9.93;;;;;;;15.73;65.49;101386.25;4991905;28;20041;-18
2022/05/19 01:10:26;;;;;;;11.35;10.25;;;;;;;15.70;65.77;101388.09;4991867;28;20054;-18
2022/05/19 01:12:51;;;;;;;10.60;9.70;;;;;;;15.66;65.21;101389.91;4990543;28;20100;-17
2022/05/19 01:15:17;;;;;;;11.52;10.38;;;;;;;15.57;65.41;101383.00;4985781;28;20113;-17
2022/05/19 01:17:42;;;;;;;11.15;10.15;;;;;;;15.55;65.39;101382.16;4983116;28;20412;-17
2022/05/19 01:20:12;;;;;;;10.32;9.52;;;;;;;15.50;65.65;101376.91;4982493;28;20088;-18
2022/05/19 01:22:52;;;;;;;10.90;10.00;;;;;;;15.54;65.64;101384.84;4969180;28;20022;-18
2022/05/19 01:25:20;;;;;;;11.20;10.23;;;;;;;15.48;66.03;101388.50;4986088;28;20143;-18
2022/05/19 01:27:45;;;;;;;11.25;10.00;;;;;;;15.40;65.64;101385.97;4985782;28;20431;-17
2022/05/19 01:30:11;;;;;;;10.63;9.73;;;;;;;15.42;65.64;101388.59;4982319;28;20031;-17
2022/05/19 01:32:37;;;;;;;11.00;10.00;;;;;;;15.39;65.96;101389.53;4984183;28;20519;-18
2022/05/19 01:35:03;;;;;;;10.73;9.73;;;;;;;15.36;65.85;101385.16;4985849;28;20113;-18
2022/05/19 01:37:29;;;;;;;10.35;9.45;;;;;;;15.31;65.80;101380.81;4985831;28;20232;-17
2022/05/19 01:40:04;;;;;;;10.85;9.88;;;;;;;15.28;65.86;101381.75;4987846;28;20038;-18
2022/05/19 01:42:53;;;;;;;11.30;10.18;;;;;;;15.23;65.84;101378.28;4984578;28;20038;-17
2022/05/19 01:45:37;;;;;;;10.30;9.40;;;;;;;15.20;66.05;101384.53;4985145;28;20034;-17
2022/05/19 01:48:34;;;;;;;11.07;10.07;;;;;;;15.18;66.42;101381.03;4985095;28;20221;-17
2022/05/19 01:51:05;;;;;;;9.93;9.13;;;;;;;15.18;66.01;101383.69;4983638;28;20054;-18
2022/05/19 01:53:44;;;;;;;11.88;10.77;;;;;;;15.11;66.23;101384.69;4998682;28;20134;-17
2022/05/19 01:56:25;;;;;;;10.82;9.93;;;;;;;15.10;66.23;101381.16;5002809;28;20023;-17
2022/05/19 01:59:11;;;;;;;11.30;10.25;;;;;;;15.10;66.44;101388.25;5003219;28;20087;-17
2022/05/19 02:01:39;;;;;;;10.73;9.82;;;;;;;15.05;66.11;101379.47;4985710;28;20065;-17
2022/05/19 02:04:06;;;;;;;10.93;10.02;;;;;;;15.01;66.33;101387.50;4997830;28;20030;-17
2022/05/19 02:06:42;;;;;;;10.80;9.75;;;;;;;14.94;66.30;101385.84;4985285;28;20038;-17
2022/05/19 02:09:15;;;;;;;10.85;9.85;;;;;;;14.90;66.52;101397.41;4984189;28;20042;-18
2022/05/19 02:11:43;;;;;;;8.68;7.95;;;;;;;14.90;65.99;101391.25;4983914;28;20069;-18
2022/05/19 02:14:13;;;;;;;10.68;9.57;;;;;;;14.82;66.36;101381.63;4998717;28;20045;-17
2022/05/19 02:16:39;;;;;;;10.20;9.27;;;;;;;14.80;66.33;101385.19;4987397;28;20019;-17
2022/05/19 02:19:05;;;;;;;10.32;9.43;;;;;;;14.82;65.86;101388.69;4982180;28;20441;-17
2022/05/19 02:21:31;;;;;;;10.10;9.27;;;;;;;14.80;66.00;101387.84;4983777;28;20567;-17
2022/05/19 02:23:59;;;;;;;10.43;9.43;;;;;;;14.77;65.85;101385.22;4982276;28;20234;-18
2022/05/19 02:26:25;;;;;;;10.57;9.65;;;;;;;14.74;66.26;101392.31;4985755;28;20038;-17
2022/05/19 02:28:57;;;;;;;11.15;9.98;;;;;;;14.70;66.34;101390.59;4999555;28;20030;-17
2022/05/19 02:31:22;;;;;;;9.88;8.95;;;;;;;14.68;66.01;101392.41;4999470;28;20103;-17
2022/05/19 02:33:48;;;;;;;10.50;9.45;;;;;;;14.67;66.11;101390.63;4981670;28;20467;-18
2022/05/19 02:36:13;;;;;;;10.25;9.35;;;;;;;14.62;66.34;101396.03;4982869;28;20029;-18
2022/05/19 02:38:39;;;;;;;10.65;9.55;;;;;;;14.61;65.78;101388.94;4985793;28;20026;-17
2022/05/19 02:41:04;;;;;;;9.82;8.82;;;;;;;14.59;65.97;101397.84;4983574;28;20026;-17
2022/05/19 02:43:30;;;;;;;10.07;9.18;;;;;;;14.57;66.03;101397.84;4986545;28;20022;-17
2022/05/19 02:45:55;;;;;;;9.88;9.07;;;;;;;14.52;66.38;101393.53;4985255;28;20046;-17
2022/05/19 02:48:20;;;;;;;9.80;9.00;;;;;;;14.49;66.26;101392.69;4982034;28;20034;-17
2022/05/19 02:50:47;;;;;;;9.90;9.00;;;;;;;14.43;66.82;101392.75;4983531;28;20138;-17
2022/05/19 02:53:13;;;;;;;10.50;9.60;;;;;;;14.42;66.69;101392.78;4984000;28;20026;-17
2022/05/19 02:55:39;;;;;;;12.00;10.65;;;;;;;14.40;66.78;101398.09;4998344;28;20026;-17
2022/05/19 02:58:05;;;;;;;10.88;9.88;;;;;;;14.39;66.21;101395.47;5002232;28;20026;-17
2022/05/19 03:00:30;;;;;;;10.80;9.88;;;;;;;14.37;66.54;101387.50;4986879;28;20230;-18
2022/05/19 03:02:57;;;;;;;12.23;9.77;;;;;;;14.34;66.59;101392.88;4983882;28;20034;-17
2022/05/19 03:05:25;;;;;;;11.10;10.02;;;;;;;14.31;66.35;101384.97;4980380;28;20169;-17
2022/05/19 03:07:51;;;;;;;11.18;9.48;;;;;;;14.31;66.62;101390.28;5001249;28;20038;-18
2022/05/19 03:10:16;;;;;;;10.75;9.75;;;;;;;14.28;66.31;101382.34;4984171;28;20444;-17
2022/05/19 03:12:41;;;;;;;10.75;9.70;;;;;;;14.29;66.61;101387.63;4985244;28;20039;-17
2022/05/19 03:15:08;;;;;;;10.02;9.23;;;;;;;14.26;66.63;101394.75;4985359;28;20064;-17
2022/05/19 03:17:33;;;;;;;10.43;9.52;;;;;;;14.21;66.67;101387.72;4985623;28;20476;-17
2022/05/19 03:19:59;;;;;;;9.98;9.05;;;;;;;14.23;67.02;101385.06;4985119;28;20038;-17
2022/05/19 03:22:27;;;;;;;10.57;9.57;;;;;;;14.21;66.37;101387.72;4985719;28;20584;-17
2022/05/19 03:24:53;;;;;;;11.02;9.93;;;;;;;14.22;66.60;101381.53;5000363;28;20130;-17
2022/05/19 03:27:22;;;;;;;10.98;9.75;;;;;;;14.24;66.21;101389.47;5001084;28;20518;-17
2022/05/19 03:29:49;;;;;;;10.77;9.88;;;;;;;14.16;66.77;101389.56;4985864;28;20054;-17
2022/05/19 03:32:16;;;;;;;11.52;9.45;;;;;;;14.17;67.05;101391.31;4983775;28;20477;-17
2022/05/19 03:34:41;;;;;;;10.52;9.52;;;;;;;14.13;67.05;101400.22;4982661;28;20034;-17
2022/05/19 03:37:07;;;;;;;10.82;9.80;;;;;;;14.13;66.70;101394.91;4982103;28;20036;-17
2022/05/19 03:39:35;;;;;;;10.82;9.80;;;;;;;14.08;66.66;101388.78;4981721;28;20100;-17
2022/05/19 03:42:01;;;;;;;10.82;9.82;;;;;;;14.04;67.31;101387.94;4981999;28;20506;-17
2022/05/19 03:44:26;;;;;;;10.93;9.82;;;;;;;14.03;67.50;101388.84;4985020;28;20034;-18
2022/05/19 03:46:52;;;;;;;10.90;9.85;;;;;;;14.02;67.27;101383.53;4984309;28;20112;-17
2022/05/19 03:49:17;;;;;;;10.15;9.15;;;;;;;14.08;67.28;101387.00;4985930;28;20026;-17
2022/05/19 03:51:42;;;;;;;11.02;9.98;;;;;;;14.04;67.34;101379.13;4984680;28;20022;-17
2022/05/19 03:54:09;;;;;;;10.82;9.73;;;;;;;14.06;66.70;101387.91;4981123;28;20030;-17
2022/05/19 03:56:34;;;;;;;11.18;10.18;;;;;;;14.02;67.02;101394.16;4983565;28;20381;-17
2022/05/19 03:59:00;;;;;;;10.70;9.80;;;;;;;14.03;67.43;101393.25;4984043;28;20022;-17
2022/05/19 04:01:25;;;;;;;10.25;9.32;;;;;;;13.98;66.67;101391.53;4985400;28;20119;-18
2022/05/19 04:03:51;;;;;;;11.02;10.02;;;;;;;14.00;67.66;101396.81;4982446;28;20493;-17
2022/05/19 04:06:17;;;;;;;10.32;9.43;;;;;;;14.01;67.67;101388.00;4981353;28;20026;-17
2022/05/19 04:08:43;;;;;;;10.93;10.02;;;;;;;14.08;67.58;101404.72;4984882;28;20049;-17
2022/05/19 04:11:08;;;;;;;10.93;9.93;;;;;;;14.03;67.06;101394.16;4983447;28;20321;-17
2022/05/19 04:13:33;;;;;;;10.07;9.07;;;;;;;14.01;67.38;101392.41;4981987;28;20073;-18
2022/05/19 04:15:59;;;;;;;10.45;9.52;;;;;;;14.04;67.62;101400.34;4983942;28;20472;-18
2022/05/19 04:18:24;;;;;;;10.15;9.23;;;;;;;14.04;67.79;101389.72;4983093;28;20031;-17
2022/05/19 04:20:49;;;;;;;10.45;9.52;;;;;;;14.07;67.45;101395.00;4982273;28;20106;-17
2022/05/19 04:23:16;;;;;;;9.55;8.48;;;;;;;14.15;67.49;101398.44;4985889;28;20121;-17
2022/05/19 04:25:42;;;;;;;10.20;9.20;;;;;;;14.15;67.52;101403.75;4983072;28;20022;-18
2022/05/19 04:28:08;;;;;;;9.90;9.00;;;;;;;14.16;67.55;101393.97;4980508;28;20034;-18
2022/05/19 04:30:33;;;;;;;10.32;9.43;;;;;;;14.27;68.62;101409.78;4980453;28;20034;-17
2022/05/19 04:32:59;;;;;;;10.88;9.77;;;;;;;14.32;68.68;101405.28;4980019;28;20030;-17
2022/05/19 04:35:24;;;;;;;10.75;9.75;;;;;;;14.30;68.10;101400.00;4991671;28;20038;-17
2022/05/19 04:37:49;;;;;;;10.13;9.18;;;;;;;14.38;69.42;101407.88;4994708;28;20362;-17
2022/05/19 04:40:16;;;;;;;9.60;8.77;;;;;;;14.37;68.22;101406.97;4992217;28;20453;-18
2022/05/19 04:42:42;;;;;;;9.90;8.90;;;;;;;14.37;67.83;101406.97;4988750;28;20026;-17
2022/05/19 04:45:12;;;;;;;9.60;8.63;;;;;;;14.39;68.68;101406.97;5000469;28;20386;-17
2022/05/19 04:47:37;;;;;;;9.83;9.03;;;;;;;14.44;68.79;101407.75;4981626;28;20030;-17
2022/05/19 04:50:04;;;;;;;9.73;8.82;;;;;;;14.52;68.02;101406.78;4982458;28;20480;-18
2022/05/19 04:52:29;;;;;;;9.73;8.70;;;;;;;14.59;67.94;101406.69;4983369;28;20108;-17
2022/05/19 04:54:55;;;;;;;9.60;8.70;;;;;;;14.60;68.12;101416.41;4984216;28;20457;-17
2022/05/19 04:57:20;;;;;;;9.27;8.38;;;;;;;14.66;67.84;101410.13;4997177;28;20077;-17
2022/05/19 04:59:45;;;;;;;10.00;9.00;;;;;;;14.80;67.47;101409.09;4983713;28;20081;-17
2022/05/19 05:02:11;;;;;;;9.43;8.63;;;;;;;14.86;67.19;101411.63;4981626;28;20022;-17
2022/05/19 05:04:37;;;;;;;9.20;8.38;;;;;;;14.88;67.05;101401.88;4980886;28;20114;-17
2022/05/19 05:07:04;;;;;;;9.45;8.65;;;;;;;14.96;67.05;101412.38;4982053;28;20031;-17
2022/05/19 05:09:29;;;;;;;9.02;8.23;;;;;;;15.00;66.67;101409.66;4983946;28;20093;-17
2022/05/19 05:11:54;;;;;;;9.00;8.23;;;;;;;15.02;67.06;101393.69;4982323;28;20026;-17
2022/05/19 05:14:20;;;;;;;9.55;8.68;;;;;;;15.07;67.02;101398.94;4989288;28;20022;-18
2022/05/19 05:16:46;;;;;;;9.43;8.63;;;;;;;15.13;67.09;101389.09;4983720;28;20486;-17
2022/05/19 05:19:12;;;;;;;9.60;8.70;;;;;;;15.12;67.23;101397.06;4982597;28;20101;-17
2022/05/19 05:21:37;;;;;;;9.23;8.35;;;;;;;15.14;67.47;101406.75;4983027;28;20105;-17
2022/05/19 05:24:03;;;;;;;8.73;7.93;;;;;;;15.18;67.51;101398.75;4984310;28;20477;-18
2022/05/19 05:26:28;;;;;;;9.05;8.20;;;;;;;15.27;67.34;101406.56;4990495;28;20039;-18
2022/05/19 05:28:53;;;;;;;9.15;8.35;;;;;;;15.32;67.29;101406.47;4991774;28;20031;-18
2022/05/19 05:31:19;;;;;;;9.18;8.30;;;;;;;15.34;67.84;101402.88;4988762;28;20037;-18
2022/05/19 05:33:44;;;;;;;9.35;8.35;;;;;;;15.43;66.98;101407.16;4991273;28;20031;-17
2022/05/19 05:36:09;;;;;;;8.93;8.13;;;;;;;15.50;66.75;101407.94;4985969;28;20041;-17
2022/05/19 05:38:34;;;;;;;8.63;7.93;;;;;;;15.55;66.54;101406.09;4986573;28;20030;-17
2022/05/19 05:41:02;;;;;;;7.53;6.88;;;;;;;15.63;66.39;101403.28;4985618;28;20114;-18
2022/05/19 05:43:27;;;;;;;8.13;7.43;;;;;;;15.67;66.53;101402.31;4990613;28;20498;-17
2022/05/19 05:45:53;;;;;;;7.70;6.97;;;;;;;15.77;66.31;101406.56;4986042;28;20022;-18
2022/05/19 05:48:19;;;;;;;8.88;8.07;;;;;;;15.88;66.27;101413.44;4986476;28;20034;-17
2022/05/19 05:50:44;;;;;;;8.55;7.68;;;;;;;15.96;66.11;101411.53;4985700;28;20089;-18
2022/05/19 05:53:10;;;;;;;7.85;7.15;;;;;;;16.07;65.60;101413.13;4985465;28;20548;-17
2022/05/19 05:55:36;;;;;;;8.38;7.57;;;;;;;16.17;67.17;101425.31;4989875;28;20032;-18
2022/05/19 05:58:09;;;;;;;7.93;7.13;;;;;;;16.24;65.81;101410.97;4990410;28;20511;-18
2022/05/19 06:00:35;;;;;;;7.50;6.90;;;;;;;16.35;66.73;101415.19;4991399;28;20038;-18
2022/05/19 06:03:00;;;;;;;7.90;7.22;;;;;;;16.44;66.60;101420.31;5004203;28;20025;-18
2022/05/19 06:05:25;;;;;;;7.53;6.93;;;;;;;16.52;66.90;101409.50;4986923;28;20476;-18
2022/05/19 06:07:51;;;;;;;7.85;7.25;;;;;;;16.62;66.69;101411.06;4987979;28;20080;-18
2022/05/19 06:10:16;;;;;;;9.73;7.47;;;;;;;16.70;68.28;101410.00;4985879;28;20030;-17
2022/05/19 06:12:42;;;;;;;7.78;6.95;;;;;;;16.79;68.19;101410.66;4984536;28;20058;-18
2022/05/19 06:15:12;;;;;;;7.97;6.82;;;;;;;16.91;67.26;101412.16;4992532;28;20136;-18
2022/05/19 06:17:39;;;;;;;8.93;6.00;;;;;;;17.01;67.29;101412.78;5007703;28;20492;-17
2022/05/19 06:20:10;;;;;;;7.78;6.93;;;;;;;17.11;67.45;101413.47;4994881;28;20029;-17
2022/05/19 06:22:36;;;;;;;9.13;7.13;;;;;;;17.18;67.11;101407.09;4995367;28;21208;-18
2022/05/19 06:25:01;;;;;;;6.75;6.25;;;;;;;17.27;66.76;101405.97;4986358;28;20031;-17
2022/05/19 06:27:27;;;;;;;8.95;7.45;;;;;;;17.37;66.59;101403.94;4984940;28;20588;-17
2022/05/19 06:29:52;;;;;;;7.25;6.55;;;;;;;17.46;66.49;101407.28;4984679;28;20045;-17
2022/05/19 06:32:17;;;;;;;7.13;6.43;;;;;;;17.54;66.64;101400.84;4984281;28;20049;-17
2022/05/19 06:34:43;;;;;;;7.25;6.22;;;;;;;17.64;66.90;101400.59;5002190;28;20026;-17
2022/05/19 06:37:08;;;;;;;7.03;6.47;;;;;;;17.72;66.64;101403.94;4993744;28;20038;-17
2022/05/19 06:39:33;;;;;;;6.50;5.97;;;;;;;17.79;66.45;101397.50;4995846;28;20026;-18
2022/05/19 06:42:01;;;;;;;6.97;6.10;;;;;;;17.92;66.55;101399.81;4988936;28;20058;-18
2022/05/19 06:44:35;;;;;;;6.93;6.43;;;;;;;18.03;66.73;101402.19;5001208;28;20184;-17
2022/05/19 06:47:01;;;;;;;7.25;6.65;;;;;;;18.15;66.17;101401.88;4999361;28;20473;-17
2022/05/19 06:49:27;;;;;;;6.82;6.30;;;;;;;18.28;66.02;101401.50;4984001;28;20105;-16
2022/05/19 06:51:53;;;;;;;6.35;5.85;;;;;;;18.36;65.66;101388.78;4983093;28;20421;-18
2022/05/19 06:54:20;;;;;;;7.72;6.22;;;;;;;18.45;65.82;101392.97;4988130;28;20030;-18
2022/05/19 06:56:45;;;;;;;5.88;5.47;;;;;;;18.55;65.38;101394.44;4993110;28;20029;-17
2022/05/19 06:59:11;;;;;;;6.45;5.95;;;;;;;18.65;64.90;101396.81;4989856;28;20389;-17
2022/05/19 07:01:37;;;;;;;6.68;5.97;;;;;;;18.75;64.97;101394.72;4996478;28;20025;-18
2022/05/19 07:04:02;;;;;;;6.95;6.00;;;;;;;18.87;64.87;101390.78;4992662;28;20017;-18
2022/05/19 07:06:27;;;;;;;8.48;6.32;;;;;;;18.98;65.05;101394.84;4992097;28;20406;-18
2022/05/19 07:08:53;;;;;;;5.95;5.38;;;;;;;19.09;65.21;101383.84;4994043;28;20034;-22
2022/05/19 07:11:25;;;;;;;6.30;5.80;;;;;;;19.20;64.52;101383.47;4990274;28;20494;-18
2022/05/19 07:13:56;;;;;;;6.45;5.85;;;;;;;19.33;64.16;101385.72;4995109;28;20109;-17
2022/05/19 07:16:21;;;;;;;6.22;5.63;;;;;;;19.46;64.56;101378.13;4983637;28;20018;-17
2022/05/19 07:18:47;;;;;;;7.07;6.40;;;;;;;19.55;64.15;101388.53;4984576;28;20034;-18
2022/05/19 07:21:12;;;;;;;7.57;6.05;;;;;;;19.70;64.66;101388.88;4983239;28;20030;-17
2022/05/19 07:23:39;;;;;;;6.32;5.57;;;;;;;19.80;64.43;101379.59;4987806;28;20037;-17
2022/05/19 07:26:05;;;;;;;6.43;5.90;;;;;;;19.87;63.81;101385.59;4989354;28;20122;-18
2022/05/19 07:28:30;;;;;;;7.10;5.50;;;;;;;19.93;63.25;101385.38;4991405;28;20113;-17
2022/05/19 07:30:56;;;;;;;6.40;5.85;;;;;;;20.07;63.57;101389.38;4991241;28;20192;-17
2022/05/19 07:33:21;;;;;;;6.75;5.50;;;;;;;20.17;63.44;101385.38;4994596;28;20061;-17
2022/05/19 07:35:46;;;;;;;7.28;6.30;;;;;;;20.33;63.81;101387.47;4993238;28;20026;-18
2022/05/19 07:38:15;;;;;;;6.20;5.70;;;;;;;20.53;63.54;101378.66;4993749;28;20408;-17
2022/05/19 07:40:41;;;;;;;7.07;6.38;;;;;;;20.57;62.81;101380.28;4992058;28;20040;-18
2022/05/19 07:45:51;;;;;;;6.40;5.90;;;;;;;20.74;63.16;101384.94;4986781;28;20037;-17
2022/05/19 07:48:16;;;;;;;6.97;6.35;;;;;;;20.93;63.47;101380.66;4985404;28;20113;-17
2022/05/19 07:50:42;;;;;;;7.78;6.05;;;;;;;21.00;62.37;101392.88;4998975;28;20030;-18
2022/05/19 07:53:07;;;;;;;5.65;5.22;;;;;;;21.07;62.25;101383.66;4983243;28;20054;-17
2022/05/19 07:55:32;;;;;;;6.07;5.57;;;;;;;21.11;62.35;101379.91;4990602;28;20019;-17
2022/05/19 07:57:58;;;;;;;6.50;6.00;;;;;;;21.23;62.03;101383.00;4989913;28;20026;-17
2022/05/19 08:00:23;;;;;;;5.82;5.32;;;;;;;21.39;62.61;101377.84;4988862;28;20550;-17
2022/05/19 08:02:49;;;;;;;6.18;5.68;;;;;;;21.44;62.22;101375.81;5001454;28;20081;-17
2022/05/19 08:05:14;;;;;;;5.70;5.20;;;;;;;21.55;61.64;101370.00;4984373;28;20034;-17
2022/05/19 08:07:40;;;;;;;5.82;5.32;;;;;;;21.61;61.50;101371.53;4990621;28;20613;-17
2022/05/19 08:10:21;;;;;;;5.90;5.40;;;;;;;21.69;61.41;101368.50;4985455;28;20045;-16
2022/05/19 08:15:40;;;;;;;6.55;5.90;;;;;;;21.94;61.54;101372.78;4979695;28;20472;-17
2022/05/19 08:18:11;;;;;;;6.32;5.82;;;;;;;22.09;61.77;101365.81;4984821;28;20041;-17
2022/05/19 08:20:39;;;;;;;;;;;;;;;22.22;61.38;101372.38;4993960;28;20372;-17
2022/05/19 08:23:06;;;;;;;6.03;5.50;;;;;;;22.37;61.70;101364.53;4999366;28;19960;-17
2022/05/19 08:25:31;;;;;;;5.82;5.30;;;;;;;22.57;61.28;101366.25;4985672;28;20335;-17
2022/05/19 08:27:57;;;;;;;5.95;5.45;;;;;;;22.70;61.20;101362.97;4984487;28;20121;-17
2022/05/19 08:30:23;;;;;;;5.70;5.20;;;;;;;22.74;60.81;101368.09;4998216;28;20038;-17
2022/05/19 08:32:49;;;;;;;5.78;5.32;;;;;;;22.75;59.93;101369.00;4985040;28;20041;-17
2022/05/19 08:35:14;;;;;;;5.60;5.20;;;;;;;22.85;60.26;101370.28;4988382;28;20030;-16
2022/05/19 08:37:40;;;;;;;6.45;5.53;;;;;;;22.92;59.31;101376.22;4987594;28;20053;-17
2022/05/19 08:40:06;;;;;;;5.32;4.93;;;;;;;22.98;59.17;101372.34;4989506;28;20037;-17
2022/05/19 08:42:36;;;;;;;5.75;5.30;;;;;;;23.17;60.08;101357.00;4985646;28;20092;-18
2022/05/19 08:45:04;;;;;;;5.40;5.00;;;;;;;23.29;59.51;101362.69;4983607;28;20169;-16
2022/05/19 08:47:34;;;;;;;5.43;5.03;;;;;;;23.37;59.01;101359.66;4985796;28;20027;-16
2022/05/19 08:50:04;;;;;;;6.32;5.43;;;;;;;23.49;59.11;101367.06;4984072;28;20081;-17
2022/05/19 08:52:38;;;;;;;4.90;4.55;;;;;;;23.52;58.68;101363.34;4991709;28;20050;-18
2022/05/19 08:55:03;;;;;;;5.93;5.43;;;;;;;23.56;57.97;101365.78;4983076;28;20026;-17
2022/05/19 08:57:59;;;;;;;5.28;4.80;;;;;;;23.64;57.94;101357.28;4982696;28;20614;-17
2022/05/19 09:00:37;;;;;;;5.72;5.28;;;;;;;23.90;58.72;101363.09;5001503;28;20159;-17
2022/05/19 09:03:18;;;;;;;5.60;5.13;;;;;;;23.93;57.40;101354.84;4984269;28;20051;-16
2022/05/19 09:06:05;;;;;;;5.03;4.60;;;;;;;23.90;57.20;101357.69;4984962;28;20027;-17
2022/05/19 09:08:45;;;;;;;5.50;4.97;;;;;;;23.92;56.57;101357.63;5000735;28;20038;-17
2022/05/19 09:11:16;;;;;;;5.45;5.05;;;;;;;24.02;57.82;101344.50;5001411;28;20034;-18
2022/05/19 09:14:06;;;;;;;5.35;4.85;;;;;;;24.12;57.52;101353.84;4999820;28;20034;-17
2022/05/19 09:16:33;;;;;;;5.47;4.97;;;;;;;24.18;57.08;101350.78;4986415;28;20052;-17
2022/05/19 09:19:08;;;;;;;5.35;4.88;;;;;;;24.37;57.87;101348.91;4988471;28;20065;-17
2022/05/19 09:21:35;;;;;;;5.55;5.05;;;;;;;24.48;57.79;101341.06;4987768;28;20133;-18
2022/05/19 09:24:01;;;;;;;5.00;4.60;;;;;;;24.46;57.09;101341.16;5001966;28;20397;-17
2022/05/19 09:26:35;;;;;;;5.63;5.20;;;;;;;24.47;56.66;101342.00;4987847;28;20038;-17
2022/05/19 09:29:13;;;;;;;4.93;4.55;;;;;;;24.68;56.83;101336.34;5001140;28;20041;-18
2022/05/19 09:31:38;;;;;;;5.00;4.60;;;;;;;24.68;55.85;101330.94;5002863;28;20623;-18
2022/05/19 09:34:06;;;;;;;5.22;4.82;;;;;;;24.74;56.34;101338.66;4986610;28;20118;-17
2022/05/19 09:36:38;;;;;;;5.35;4.80;;;;;;;24.85;56.47;101333.53;4987199;28;20037;-17
2022/05/19 09:39:04;;;;;;;5.20;4.68;;;;;;;24.93;56.06;101338.47;4987000;28;20072;-17
2022/05/19 09:41:33;;;;;;;7.07;4.88;;;;;;;25.08;56.42;101333.97;4986095;28;20054;-17
2022/05/19 09:43:59;;;;;;;4.78;4.38;;;;;;;25.16;56.13;101336.22;4985738;28;20027;-17
2022/05/19 09:46:39;;;;;;;5.18;4.70;;;;;;;25.33;55.99;101337.00;4989265;28;20026;-16
2022/05/19 09:49:06;;;;;;;5.28;4.43;;;;;;;25.42;56.18;101336.47;5003150;28;20121;-16
2022/05/19 09:51:40;;;;;;;5.18;4.68;;;;;;;25.49;56.12;101332.44;4995172;28;20040;-17
2022/05/19 09:54:06;;;;;;;6.18;5.57;;;;;;;25.49;55.54;101327.03;4995400;28;20464;-16
2022/05/19 09:56:43;;;;;;;4.70;4.38;;;;;;;25.55;55.43;101330.28;4984877;28;20315;-17
2022/05/19 09:59:17;;;;;;;4.50;4.20;;;;;;;25.59;55.16;101321.94;4985131;28;20038;-17
2022/05/19 10:01:48;;;;;;;5.00;4.57;;;;;;;25.69;55.41;101324.94;5001162;28;20113;-17
2022/05/19 10:04:32;;;;;;;5.63;5.13;;;;;;;25.82;55.25;101321.44;5002780;28;20034;-17
2022/05/19 10:07:07;;;;;;;5.22;4.82;;;;;;;25.88;55.31;101315.66;4982575;28;20034;-16
2022/05/19 10:09:37;;;;;;;4.90;4.60;;;;;;;25.92;55.09;101300.09;4983414;28;20030;-16
2022/05/19 10:12:11;;;;;;;6.50;4.18;;;;;;;25.97;54.51;101295.25;4979158;28;20497;-17
2022/05/19 10:14:38;;;;;;;4.78;4.10;;;;;;;26.06;54.05;101299.19;4986051;28;20117;-17
2022/05/19 10:17:33;;;;;;;4.68;4.28;;;;;;;26.08;53.89;101294.56;4981824;28;20025;-17
2022/05/19 10:20:13;;;;;;;4.53;4.22;;;;;;;26.14;53.57;101295.03;4983433;28;20036;-17
2022/05/19 10:22:48;;;;;;;5.35;4.85;;;;;;;26.25;53.73;101286.19;4985597;28;20037;-17
2022/05/19 10:25:53;;;;;;;4.82;4.50;;;;;;;26.44;54.08;101284.16;4981741;28;20030;-16
2022/05/19 10:31:40;;;;;;;4.93;4.40;;;;;;;26.59;53.45;101252.50;4982677;28;20041;-17
2022/05/19 10:34:30;;;;;;;4.88;4.57;;;;;;;26.64;52.89;101247.66;4999563;28;20764;-17
2022/05/19 10:37:31;;;;;;;5.57;4.40;;;;;;;26.67;52.08;101250.13;4981429;28;20057;-17
2022/05/19 10:40:18;;;;;;;4.55;4.20;;;;;;;26.81;52.38;101254.59;4984546;28;20030;-17
2022/05/19 10:42:52;;;;;;;4.85;4.45;;;;;;;26.90;50.50;101247.66;4985567;28;20027;-16
2022/05/19 10:45:24;;;;;;;6.88;4.05;;;;;;;26.98;50.58;101234.50;4987909;28;20026;-16
2022/05/19 10:48:07;;;;;;;4.25;3.88;;;;;;;27.02;51.13;101243.28;4993262;28;20445;-17
2022/05/19 10:50:46;;;;;;;4.07;3.80;;;;;;;27.06;51.57;101247.50;4991953;28;20378;-17
2022/05/19 10:53:58;;;;;;;4.07;3.78;;;;;;;27.10;51.22;101242.72;5004892;28;21401;-17
2022/05/19 10:57:06;;;;;;;4.22;3.90;;;;;;;27.19;50.75;101235.78;5007363;28;20072;-16
2022/05/19 10:59:56;;;;;;;5.53;4.60;;;;;;;27.26;50.80;101226.25;4994647;28;20054;-16
2022/05/19 11:03:03;;;;;;;4.90;3.78;;;;;;;27.35;50.85;101216.63;5006414;28;20026;-17
2022/05/19 11:05:47;;;;;;;3.75;3.35;;;;;;;27.39;50.63;101220.84;4993516;28;20068;-17
2022/05/19 11:08:26;;;;;;;3.35;3.05;;;;;;;27.40;50.13;101211.72;5003342;28;20038;-17
2022/05/19 11:11:04;;;;;;;3.78;3.47;;;;;;;27.49;49.92;101210.19;5002757;28;20034;-17
2022/05/19 11:13:44;;;;;;;4.50;3.35;;;;;;;27.54;49.81;101219.72;4989022;28;20038;-18
2022/05/19 11:16:32;;;;;;;3.95;3.55;;;;;;;27.58;49.19;101220.38;4997906;28;20054;-16
2022/05/19 11:19:04;;;;;;;4.03;3.55;;;;;;;27.63;49.82;101217.34;4982703;28;20523;-17
2022/05/19 11:21:35;;;;;;;4.75;3.50;;;;;;;27.69;50.50;101207.91;4981067;28;20030;-18
2022/05/19 11:24:06;;;;;;;3.92;3.45;;;;;;;27.79;50.43;101206.25;4984587;28;20465;-17
2022/05/19 11:26:39;;;;;;;5.07;4.00;;;;;;;27.90;50.09;101202.72;5002090;28;20052;-17
2022/05/19 11:29:20;;;;;;;4.15;3.40;;;;;;;28.02;48.74;101206.38;4989333;28;20058;-17
2022/05/19 11:32:03;;;;;;;4.40;3.22;;;;;;;27.94;48.98;101193.38;4990292;28;20037;-17
2022/05/19 11:34:47;;;;;;;3.72;3.42;;;;;;;27.94;49.36;101182.53;4991484;28;20091;-17
2022/05/19 11:37:38;;;;;;;4.90;3.60;;;;;;;27.96;49.32;101180.59;4989914;28;20048;-17
2022/05/19 11:40:29;;;;;;;;;;;;;;;28.02;49.17;101187.38;4990599;28;20054;-17
2022/05/19 11:43:14;;;;;;;6.63;3.40;;;;;;;28.03;48.92;101175.56;4992957;28;19913;-16